Atlantic, Pennsylvania
Current Conditions -  °F | °C
As of 12:53 PM on Saturday 25 Oct 2014 (Local Time) from KGKJ Reporting Station
Overcast Overcast  
Wind Chill: 62°   Ceiling: 4000
Heat Index: 62°   Visibility: 10mi
Dew Point: 47°   Wind: 8mph
Humidity: 58%   Direction: 240°WSW
Pressure: 29.78"   Gusts: NA
Location:  41.5°N, 80.33°W
Report Text: KGKJ 251653Z AUTO 24007KT 10SM BKN040 OVC049 17/08 A2978 RMK AO2 SLP085 T01670083 TSNO $
Loading
Personal Weather Stations






























Interactive Weather Map New forecast layout! Learn more

10-Day Weather Forecast

Advertisements
Track Severe Weather on mobile